FAB2318 SBMT-SBGL
Flight info
| Callsign | FAB2318 |
|---|---|
| Flight time | 0h 53m |
| Altitude | 9000 |
| Route | DCT SCP DCT DORLU DCT UGRAD DCT |
| Aircraft | C95M/L-SDE3/C |
Departure
| Time | 2026-05-06 10:42 |
|---|---|
| Airport | Campo de Marte Airport (SBMT) |
Arrival
| Time | 2026-05-06 11:35 |
|---|---|
| Airport | Rio Galeão – Tom Jobim International Airport (SBGL) |
| Time | Latitude | Longitude | Altitude | Speed | Heading |
|---|---|---|---|---|---|
| 2026-05-06 10:34 | -23.50754 | -46.63107 | 2373 ft | 0 kts | 10° |
| 2026-05-06 10:37 | -23.50752 | -46.63106 | 2373 ft | 2 kts | 21° |
| 2026-05-06 10:38 | -23.50785 | -46.63128 | 2373 ft | 13 kts | 265° |
| 2026-05-06 10:38 | -23.50777 | -46.63252 | 2373 ft | 18 kts | 271° |
| 2026-05-06 10:38 | -23.50875 | -46.63305 | 2373 ft | 24 kts | 190° |
| 2026-05-06 10:38 | -23.51033 | -46.63333 | 2373 ft | 26 kts | 197° |
| 2026-05-06 10:39 | -23.51065 | -46.63474 | 2373 ft | 19 kts | 277° |
| 2026-05-06 10:39 | -23.51033 | -46.63678 | 2373 ft | 35 kts | 280° |
| 2026-05-06 10:39 | -23.50982 | -46.63983 | 2373 ft | 46 kts | 281° |
| 2026-05-06 10:39 | -23.50929 | -46.64325 | 2373 ft | 41 kts | 281° |
| 2026-05-06 10:40 | -23.50885 | -46.64581 | 2373 ft | 28 kts | 275° |
| 2026-05-06 10:40 | -23.50813 | -46.64642 | 2373 ft | 14 kts | 11° |
| 2026-05-06 10:40 | -23.50801 | -46.64640 | 2373 ft | 0 kts | 11° |
| 2026-05-06 10:41 | -23.50800 | -46.64640 | 2373 ft | 0 kts | 11° |
| 2026-05-06 10:41 | -23.50776 | -46.64626 | 2373 ft | 16 kts | 51° |
| 2026-05-06 10:41 | -23.50803 | -46.64351 | 2373 ft | 65 kts | 100° |
| 2026-05-06 10:42 | -23.50916 | -46.63669 | 2434 ft | 106 kts | 100° |
| 2026-05-06 10:42 | -23.51036 | -46.62843 | 2757 ft | 119 kts | 96° |
| 2026-05-06 10:42 | -23.51136 | -46.61874 | 3028 ft | 138 kts | 98° |
| 2026-05-06 10:42 | -23.51311 | -46.60777 | 3272 ft | 153 kts | 101° |
| 2026-05-06 10:43 | -23.51495 | -46.59595 | 3498 ft | 165 kts | 94° |
| 2026-05-06 10:43 | -23.51479 | -46.58298 | 3729 ft | 175 kts | 86° |
| 2026-05-06 10:43 | -23.51360 | -46.56966 | 3939 ft | 181 kts | 83° |
| 2026-05-06 10:44 | -23.51024 | -46.54197 | 4351 ft | 188 kts | 82° |
| 2026-05-06 10:44 | -23.50839 | -46.52766 | 4557 ft | 190 kts | 82° |
| 2026-05-06 10:44 | -23.50655 | -46.51350 | 4757 ft | 191 kts | 82° |
| 2026-05-06 10:44 | -23.50467 | -46.49904 | 4959 ft | 192 kts | 82° |
| 2026-05-06 10:45 | -23.50280 | -46.48464 | 5160 ft | 193 kts | 82° |
| 2026-05-06 10:45 | -23.50093 | -46.47020 | 5360 ft | 193 kts | 82° |
| 2026-05-06 10:45 | -23.49904 | -46.45560 | 5562 ft | 193 kts | 82° |
| 2026-05-06 10:45 | -23.49717 | -46.44126 | 5760 ft | 194 kts | 82° |
| 2026-05-06 10:46 | -23.49528 | -46.42664 | 5960 ft | 194 kts | 82° |
| 2026-05-06 10:46 | -23.49337 | -46.41198 | 6161 ft | 194 kts | 82° |
| 2026-05-06 10:46 | -23.49148 | -46.39746 | 6359 ft | 195 kts | 82° |
| 2026-05-06 10:46 | -23.48958 | -46.38278 | 6553 ft | 195 kts | 82° |
| 2026-05-06 10:47 | -23.48771 | -46.36806 | 6799 ft | 200 kts | 82° |
| 2026-05-06 10:47 | -23.48575 | -46.35306 | 6987 ft | 199 kts | 83° |
| 2026-05-06 10:47 | -23.48379 | -46.33808 | 7174 ft | 199 kts | 83° |
| 2026-05-06 10:47 | -23.48187 | -46.32328 | 7373 ft | 199 kts | 81° |
| 2026-05-06 10:48 | -23.47994 | -46.30831 | 7574 ft | 199 kts | 81° |
| 2026-05-06 10:48 | -23.47800 | -46.29356 | 7772 ft | 198 kts | 81° |
| 2026-05-06 10:48 | -23.47604 | -46.27859 | 7973 ft | 198 kts | 81° |
| 2026-05-06 10:48 | -23.47409 | -46.26382 | 8172 ft | 198 kts | 81° |
| 2026-05-06 10:49 | -23.47213 | -46.24895 | 8372 ft | 198 kts | 81° |
| 2026-05-06 10:49 | -23.47019 | -46.23423 | 8571 ft | 198 kts | 81° |
| 2026-05-06 10:49 | -23.46824 | -46.21938 | 8768 ft | 198 kts | 81° |
| 2026-05-06 10:49 | -23.46629 | -46.20454 | 8910 ft | 200 kts | 82° |
| 2026-05-06 10:50 | -23.46428 | -46.18938 | 8982 ft | 206 kts | 82° |
| 2026-05-06 10:50 | -23.46221 | -46.17360 | 9000 ft | 212 kts | 82° |
| 2026-05-06 10:50 | -23.46009 | -46.15758 | 9000 ft | 218 kts | 83° |
| 2026-05-06 10:50 | -23.45793 | -46.14110 | 9000 ft | 222 kts | 83° |
| 2026-05-06 10:51 | -23.45571 | -46.12421 | 8999 ft | 225 kts | 83° |
| 2026-05-06 10:51 | -23.45351 | -46.10741 | 8998 ft | 227 kts | 83° |
| 2026-05-06 10:51 | -23.45127 | -46.09041 | 8998 ft | 228 kts | 83° |
| 2026-05-06 10:51 | -23.44901 | -46.07329 | 8997 ft | 229 kts | 83° |
| 2026-05-06 10:52 | -23.44673 | -46.05598 | 8997 ft | 230 kts | 83° |
| 2026-05-06 10:52 | -23.44445 | -46.03873 | 8996 ft | 230 kts | 83° |
| 2026-05-06 10:52 | -23.44218 | -46.02158 | 8996 ft | 231 kts | 83° |
| 2026-05-06 10:52 | -23.43987 | -46.00416 | 8996 ft | 231 kts | 83° |
| 2026-05-06 10:53 | -23.43756 | -45.98677 | 8996 ft | 231 kts | 83° |
| 2026-05-06 10:53 | -23.43528 | -45.96958 | 8996 ft | 231 kts | 83° |
| 2026-05-06 10:53 | -23.43296 | -45.95215 | 8996 ft | 232 kts | 83° |
| 2026-05-06 10:53 | -23.43065 | -45.93478 | 8996 ft | 232 kts | 83° |
| 2026-05-06 10:54 | -23.42833 | -45.91737 | 8996 ft | 232 kts | 83° |
| 2026-05-06 10:54 | -23.42601 | -45.89995 | 8996 ft | 232 kts | 83° |
| 2026-05-06 10:54 | -23.42372 | -45.88271 | 8996 ft | 232 kts | 83° |
| 2026-05-06 10:54 | -23.42139 | -45.86529 | 8995 ft | 233 kts | 83° |
| 2026-05-06 10:55 | -23.41904 | -45.84766 | 8996 ft | 233 kts | 83° |
| 2026-05-06 10:55 | -23.41673 | -45.83041 | 8996 ft | 233 kts | 83° |
| 2026-05-06 10:55 | -23.41440 | -45.81294 | 8995 ft | 233 kts | 83° |
| 2026-05-06 10:55 | -23.41206 | -45.79551 | 8996 ft | 233 kts | 83° |
| 2026-05-06 10:56 | -23.40970 | -45.77788 | 8996 ft | 233 kts | 83° |
| 2026-05-06 10:56 | -23.40735 | -45.76032 | 8995 ft | 233 kts | 83° |
| 2026-05-06 10:56 | -23.40501 | -45.74289 | 8995 ft | 234 kts | 83° |
| 2026-05-06 10:56 | -23.40267 | -45.72549 | 8995 ft | 234 kts | 83° |
| 2026-05-06 10:57 | -23.40030 | -45.70784 | 8995 ft | 234 kts | 83° |
| 2026-05-06 10:57 | -23.39797 | -45.69049 | 8994 ft | 234 kts | 83° |
| 2026-05-06 10:57 | -23.39559 | -45.67281 | 8992 ft | 233 kts | 83° |
| 2026-05-06 10:57 | -23.39324 | -45.65538 | 8991 ft | 233 kts | 83° |
| 2026-05-06 10:58 | -23.39088 | -45.63791 | 8991 ft | 233 kts | 83° |
| 2026-05-06 10:58 | -23.38853 | -45.62052 | 8991 ft | 233 kts | 83° |
| 2026-05-06 10:58 | -23.38616 | -45.60303 | 8991 ft | 233 kts | 83° |
| 2026-05-06 10:58 | -23.38381 | -45.58566 | 8991 ft | 233 kts | 83° |
| 2026-05-06 10:59 | -23.38144 | -45.56809 | 8991 ft | 233 kts | 82° |
| 2026-05-06 10:59 | -23.37909 | -45.55074 | 8991 ft | 233 kts | 82° |
| 2026-05-06 10:59 | -23.37670 | -45.53314 | 8992 ft | 233 kts | 82° |
| 2026-05-06 10:59 | -23.37435 | -45.51581 | 8992 ft | 233 kts | 82° |
| 2026-05-06 11:00 | -23.37196 | -45.49824 | 8992 ft | 233 kts | 82° |
| 2026-05-06 11:00 | -23.36958 | -45.48074 | 8992 ft | 233 kts | 82° |
| 2026-05-06 11:00 | -23.36720 | -45.46325 | 8992 ft | 233 kts | 82° |
| 2026-05-06 11:00 | -23.36484 | -45.44586 | 8987 ft | 233 kts | 82° |
| 2026-05-06 11:01 | -23.36247 | -45.42846 | 8986 ft | 233 kts | 82° |
| 2026-05-06 11:01 | -23.36007 | -45.41093 | 8986 ft | 233 kts | 82° |
| 2026-05-06 11:01 | -23.35768 | -45.39343 | 8986 ft | 233 kts | 82° |
| 2026-05-06 11:01 | -23.35531 | -45.37611 | 8985 ft | 233 kts | 82° |
| 2026-05-06 11:02 | -23.35293 | -45.35871 | 8985 ft | 233 kts | 82° |
| 2026-05-06 11:02 | -23.35052 | -45.34118 | 8984 ft | 233 kts | 82° |
| 2026-05-06 11:02 | -23.34770 | -45.32387 | 8984 ft | 233 kts | 79° |
| 2026-05-06 11:02 | -23.34449 | -45.30669 | 8984 ft | 233 kts | 78° |
| 2026-05-06 11:03 | -23.34105 | -45.28942 | 8984 ft | 233 kts | 78° |
| 2026-05-06 11:03 | -23.33751 | -45.27227 | 8984 ft | 233 kts | 78° |
| 2026-05-06 11:03 | -23.33391 | -45.25512 | 8984 ft | 233 kts | 77° |
| 2026-05-06 11:03 | -23.33026 | -45.23789 | 8983 ft | 233 kts | 77° |
| 2026-05-06 11:04 | -23.32658 | -45.22061 | 8983 ft | 233 kts | 77° |
| 2026-05-06 11:04 | -23.32296 | -45.20365 | 8984 ft | 233 kts | 77° |
| 2026-05-06 11:04 | -23.31925 | -45.18634 | 8980 ft | 233 kts | 77° |
| 2026-05-06 11:04 | -23.31559 | -45.16930 | 8981 ft | 232 kts | 77° |
| 2026-05-06 11:05 | -23.31192 | -45.15223 | 8979 ft | 233 kts | 77° |
| 2026-05-06 11:05 | -23.30824 | -45.13516 | 8979 ft | 232 kts | 77° |
| 2026-05-06 11:05 | -23.30456 | -45.11806 | 8980 ft | 232 kts | 77° |
| 2026-05-06 11:05 | -23.30085 | -45.10085 | 8980 ft | 232 kts | 77° |
| 2026-05-06 11:06 | -23.29716 | -45.08375 | 8980 ft | 232 kts | 77° |
| 2026-05-06 11:06 | -23.29468 | -45.07226 | 8981 ft | 232 kts | 77° |
| 2026-05-06 11:06 | -23.29099 | -45.05519 | 8979 ft | 233 kts | 77° |
| 2026-05-06 11:06 | -23.28726 | -45.03799 | 8972 ft | 233 kts | 77° |
| 2026-05-06 11:07 | -23.28358 | -45.02095 | 8971 ft | 232 kts | 77° |
| 2026-05-06 11:07 | -23.27987 | -45.00386 | 8968 ft | 232 kts | 77° |
| 2026-05-06 11:07 | -23.27613 | -44.98670 | 8945 ft | 233 kts | 78° |
| 2026-05-06 11:07 | -23.27242 | -44.96960 | 8935 ft | 233 kts | 79° |
| 2026-05-06 11:08 | -23.26872 | -44.95229 | 8945 ft | 242 kts | 78° |
| 2026-05-06 11:08 | -23.26484 | -44.93421 | 8883 ft | 246 kts | 78° |
| 2026-05-06 11:08 | -23.26100 | -44.91651 | 8940 ft | 238 kts | 78° |
| 2026-05-06 11:08 | -23.25718 | -44.89892 | 8943 ft | 235 kts | 78° |
| 2026-05-06 11:09 | -23.25343 | -44.88171 | 8932 ft | 234 kts | 78° |
| 2026-05-06 11:09 | -23.24972 | -44.86465 | 8934 ft | 233 kts | 78° |
| 2026-05-06 11:09 | -23.24597 | -44.84744 | 8939 ft | 233 kts | 78° |
| 2026-05-06 11:09 | -23.24223 | -44.83029 | 8941 ft | 232 kts | 78° |
| 2026-05-06 11:10 | -23.23853 | -44.81331 | 8941 ft | 232 kts | 78° |
| 2026-05-06 11:10 | -23.23480 | -44.79617 | 8942 ft | 232 kts | 78° |
| 2026-05-06 11:10 | -23.23106 | -44.77899 | 8942 ft | 232 kts | 78° |
| 2026-05-06 11:10 | -23.22732 | -44.76185 | 8942 ft | 232 kts | 78° |
| 2026-05-06 11:11 | -23.22362 | -44.74483 | 8929 ft | 232 kts | 78° |
| 2026-05-06 11:11 | -23.21986 | -44.72763 | 8928 ft | 232 kts | 78° |
| 2026-05-06 11:11 | -23.21616 | -44.71068 | 8929 ft | 231 kts | 78° |
| 2026-05-06 11:11 | -23.21242 | -44.69360 | 8929 ft | 231 kts | 78° |
| 2026-05-06 11:12 | -23.20872 | -44.67667 | 8928 ft | 231 kts | 78° |
| 2026-05-06 11:12 | -23.20497 | -44.65955 | 8929 ft | 231 kts | 78° |
| 2026-05-06 11:12 | -23.20129 | -44.64274 | 8929 ft | 231 kts | 78° |
| 2026-05-06 11:12 | -23.19756 | -44.62573 | 8944 ft | 231 kts | 78° |
| 2026-05-06 11:13 | -23.19381 | -44.60864 | 8947 ft | 232 kts | 78° |
| 2026-05-06 11:13 | -23.19007 | -44.59154 | 8947 ft | 232 kts | 78° |
| 2026-05-06 11:13 | -23.18634 | -44.57455 | 8947 ft | 232 kts | 78° |
| 2026-05-06 11:13 | -23.18257 | -44.55734 | 8947 ft | 233 kts | 78° |
| 2026-05-06 11:14 | -23.17884 | -44.54035 | 8948 ft | 233 kts | 78° |
| 2026-05-06 11:14 | -23.17506 | -44.52313 | 8947 ft | 233 kts | 78° |
| 2026-05-06 11:14 | -23.17132 | -44.50607 | 8933 ft | 233 kts | 78° |
| 2026-05-06 11:14 | -23.16755 | -44.48895 | 8929 ft | 232 kts | 78° |
| 2026-05-06 11:15 | -23.16381 | -44.47196 | 8929 ft | 232 kts | 78° |
| 2026-05-06 11:15 | -23.16007 | -44.45497 | 8929 ft | 231 kts | 78° |
| 2026-05-06 11:15 | -23.15634 | -44.43804 | 8928 ft | 231 kts | 78° |
| 2026-05-06 11:15 | -23.15257 | -44.42098 | 8935 ft | 231 kts | 78° |
| 2026-05-06 11:16 | -23.14884 | -44.40408 | 8939 ft | 231 kts | 78° |
| 2026-05-06 11:16 | -23.14509 | -44.38705 | 8942 ft | 231 kts | 78° |
| 2026-05-06 11:16 | -23.14136 | -44.37017 | 8944 ft | 231 kts | 78° |
| 2026-05-06 11:16 | -23.13761 | -44.35329 | 8947 ft | 230 kts | 77° |
| 2026-05-06 11:17 | -23.13390 | -44.33633 | 8948 ft | 230 kts | 78° |
| 2026-05-06 11:17 | -23.13014 | -44.31924 | 8948 ft | 231 kts | 78° |
| 2026-05-06 11:17 | -23.12639 | -44.30234 | 8949 ft | 231 kts | 78° |
| 2026-05-06 11:17 | -23.12263 | -44.28533 | 8938 ft | 231 kts | 78° |
| 2026-05-06 11:18 | -23.11890 | -44.26843 | 8927 ft | 231 kts | 78° |
| 2026-05-06 11:18 | -23.11514 | -44.25152 | 8923 ft | 231 kts | 77° |
| 2026-05-06 11:18 | -23.11136 | -44.23447 | 8916 ft | 230 kts | 77° |
| 2026-05-06 11:18 | -23.10763 | -44.21771 | 8912 ft | 230 kts | 77° |
| 2026-05-06 11:19 | -23.10386 | -44.20078 | 8914 ft | 229 kts | 77° |
| 2026-05-06 11:19 | -23.10013 | -44.18398 | 8915 ft | 229 kts | 77° |
| 2026-05-06 11:19 | -23.09638 | -44.16712 | 8913 ft | 229 kts | 78° |
| 2026-05-06 11:19 | -23.09263 | -44.15026 | 8914 ft | 229 kts | 77° |
| 2026-05-06 11:20 | -23.08891 | -44.13355 | 8915 ft | 229 kts | 77° |
| 2026-05-06 11:20 | -23.08517 | -44.11676 | 8920 ft | 229 kts | 77° |
| 2026-05-06 11:20 | -23.08141 | -44.09991 | 8918 ft | 229 kts | 77° |
| 2026-05-06 11:20 | -23.07764 | -44.08298 | 8920 ft | 229 kts | 78° |
| 2026-05-06 11:21 | -23.07392 | -44.06628 | 8917 ft | 229 kts | 77° |
| 2026-05-06 11:21 | -23.07017 | -44.04938 | 8905 ft | 230 kts | 77° |
| 2026-05-06 11:21 | -23.06640 | -44.03247 | 8903 ft | 229 kts | 77° |
| 2026-05-06 11:21 | -23.06264 | -44.01565 | 8903 ft | 229 kts | 77° |
| 2026-05-06 11:22 | -23.05887 | -43.99881 | 8902 ft | 229 kts | 77° |
| 2026-05-06 11:22 | -23.05516 | -43.98222 | 8902 ft | 229 kts | 77° |
| 2026-05-06 11:22 | -23.05142 | -43.96551 | 8902 ft | 229 kts | 77° |
| 2026-05-06 11:22 | -23.04765 | -43.94864 | 8902 ft | 229 kts | 77° |
| 2026-05-06 11:23 | -23.04390 | -43.93192 | 8900 ft | 229 kts | 77° |
| 2026-05-06 11:23 | -23.04016 | -43.91519 | 8900 ft | 228 kts | 77° |
| 2026-05-06 11:23 | -23.03639 | -43.89837 | 8899 ft | 228 kts | 77° |
| 2026-05-06 11:23 | -23.03265 | -43.88173 | 8899 ft | 228 kts | 77° |
| 2026-05-06 11:24 | -23.02886 | -43.86479 | 8899 ft | 228 kts | 77° |
| 2026-05-06 11:24 | -23.02512 | -43.84816 | 8902 ft | 228 kts | 77° |
| 2026-05-06 11:24 | -23.02136 | -43.83145 | 8905 ft | 228 kts | 77° |
| 2026-05-06 11:24 | -23.01758 | -43.81458 | 8896 ft | 229 kts | 77° |
| 2026-05-06 11:25 | -23.01384 | -43.79790 | 8892 ft | 229 kts | 77° |
| 2026-05-06 11:25 | -23.01003 | -43.78098 | 8890 ft | 229 kts | 77° |
| 2026-05-06 11:25 | -23.00629 | -43.76435 | 8888 ft | 228 kts | 77° |
| 2026-05-06 11:25 | -23.00254 | -43.74771 | 8886 ft | 228 kts | 77° |
| 2026-05-06 11:26 | -22.99875 | -43.73098 | 8885 ft | 228 kts | 76° |
| 2026-05-06 11:26 | -22.99285 | -43.71491 | 8889 ft | 229 kts | 63° |
| 2026-05-06 11:26 | -22.98442 | -43.70032 | 8712 ft | 229 kts | 56° |
| 2026-05-06 11:26 | -22.97469 | -43.68691 | 8462 ft | 221 kts | 51° |
| 2026-05-06 11:27 | -22.96471 | -43.67473 | 8207 ft | 211 kts | 49° |
| 2026-05-06 11:27 | -22.95479 | -43.66331 | 7948 ft | 204 kts | 48° |
| 2026-05-06 11:27 | -22.94511 | -43.65239 | 7692 ft | 198 kts | 47° |
| 2026-05-06 11:27 | -22.93547 | -43.64159 | 7441 ft | 199 kts | 47° |
| 2026-05-06 11:28 | -22.92573 | -43.63067 | 7194 ft | 202 kts | 48° |
| 2026-05-06 11:28 | -22.91603 | -43.61974 | 6950 ft | 204 kts | 48° |
| 2026-05-06 11:28 | -22.90605 | -43.60848 | 6701 ft | 208 kts | 48° |
| 2026-05-06 11:28 | -22.89618 | -43.59684 | 6458 ft | 214 kts | 53° |
| 2026-05-06 11:29 | -22.88832 | -43.58300 | 6222 ft | 219 kts | 64° |
| 2026-05-06 11:29 | -22.88224 | -43.56759 | 5978 ft | 223 kts | 70° |
| 2026-05-06 11:29 | -22.87728 | -43.55164 | 5732 ft | 225 kts | 73° |
| 2026-05-06 11:29 | -22.87284 | -43.53527 | 5483 ft | 224 kts | 75° |
| 2026-05-06 11:30 | -22.86873 | -43.51909 | 5227 ft | 219 kts | 75° |
| 2026-05-06 11:30 | -22.86485 | -43.50341 | 4974 ft | 214 kts | 75° |
| 2026-05-06 11:30 | -22.86106 | -43.48806 | 4720 ft | 209 kts | 75° |
| 2026-05-06 11:30 | -22.85732 | -43.47301 | 4468 ft | 206 kts | 75° |
| 2026-05-06 11:31 | -22.85355 | -43.45808 | 4214 ft | 204 kts | 74° |
| 2026-05-06 11:31 | -22.84977 | -43.44319 | 3963 ft | 204 kts | 74° |
| 2026-05-06 11:31 | -22.84600 | -43.42840 | 3717 ft | 205 kts | 74° |
| 2026-05-06 11:31 | -22.84221 | -43.41358 | 3531 ft | 199 kts | 74° |
| 2026-05-06 11:32 | -22.83866 | -43.39972 | 3493 ft | 185 kts | 75° |
| 2026-05-06 11:32 | -22.83529 | -43.38642 | 3337 ft | 183 kts | 75° |
| 2026-05-06 11:32 | -22.83189 | -43.37309 | 3059 ft | 186 kts | 75° |
| 2026-05-06 11:32 | -22.82843 | -43.35941 | 2780 ft | 187 kts | 76° |
| 2026-05-06 11:33 | -22.82506 | -43.34601 | 2527 ft | 180 kts | 76° |
| 2026-05-06 11:33 | -22.82179 | -43.33317 | 2191 ft | 171 kts | 76° |
| 2026-05-06 11:33 | -22.81874 | -43.32125 | 1864 ft | 160 kts | 76° |
| 2026-05-06 11:33 | -22.81584 | -43.30984 | 1391 ft | 157 kts | 76° |
| 2026-05-06 11:34 | -22.81315 | -43.29907 | 957 ft | 133 kts | 76° |
| 2026-05-06 11:34 | -22.81114 | -43.29011 | 676 ft | 109 kts | 81° |
| 2026-05-06 11:34 | -22.80947 | -43.28302 | 562 ft | 94 kts | 73° |
| 2026-05-06 11:34 | -22.80715 | -43.27583 | 510 ft | 109 kts | 73° |
| 2026-05-06 11:35 | -22.80496 | -43.26774 | 420 ft | 113 kts | 75° |
| 2026-05-06 11:35 | -22.80290 | -43.25972 | 203 ft | 104 kts | 75° |
| 2026-05-06 11:35 | -22.80113 | -43.25268 | 34 ft | 88 kts | 75° |
| 2026-05-06 11:35 | -22.80014 | -43.24853 | 33 ft | 35 kts | 76° |
| 2026-05-06 11:36 | -22.79957 | -43.24613 | 33 ft | 41 kts | 73° |
| 2026-05-06 11:36 | -22.79895 | -43.24331 | 33 ft | 39 kts | 82° |
| 2026-05-06 11:36 | -22.79901 | -43.24082 | 33 ft | 15 kts | 154° |
| 2026-05-06 11:36 | -22.79960 | -43.24145 | 33 ft | 15 kts | 233° |
| 2026-05-06 11:37 | -22.80058 | -43.24294 | 33 ft | 30 kts | 234° |
| 2026-05-06 11:37 | -22.80192 | -43.24500 | 33 ft | 38 kts | 227° |
| 2026-05-06 11:37 | -22.80327 | -43.24682 | 33 ft | 33 kts | 255° |
| 2026-05-06 11:37 | -22.80400 | -43.24968 | 33 ft | 45 kts | 254° |
| 2026-05-06 11:38 | -22.80521 | -43.25321 | 33 ft | 53 kts | 230° |
| 2026-05-06 11:38 | -22.80809 | -43.25568 | 33 ft | 43 kts | 212° |
| 2026-05-06 11:38 | -22.80931 | -43.25507 | 33 ft | 21 kts | 154° |
| 2026-05-06 11:38 | -22.80988 | -43.25521 | 33 ft | 0 kts | 277° |